sensor_id;sensor_type;location;lat;lon;timestamp;P1;durP1;ratioP1;P2;durP2;ratioP2
51491;SDS011;37569;50.548;8.778;2023-10-08T00:04:51;7.5;;;4.1;;
51491;SDS011;37569;50.548;8.778;2023-10-08T00:09:52;7.2;;;4.5;;
51491;SDS011;37569;50.548;8.778;2023-10-08T00:14:52;7.8;;;4.6;;
51491;SDS011;37569;50.548;8.778;2023-10-08T00:19:53;6.7;;;4.6;;
51491;SDS011;37569;50.548;8.778;2023-10-08T00:24:54;5.9;;;4.3;;
51491;SDS011;37569;50.548;8.778;2023-10-08T00:29:55;8.1;;;4.5;;
51491;SDS011;37569;50.548;8.778;2023-10-08T00:34:55;7.1;;;4.3;;
51491;SDS011;37569;50.548;8.778;2023-10-08T00:39:56;7.2;;;4.2;;
51491;SDS011;37569;50.548;8.778;2023-10-08T00:44:57;6.4;;;4.5;;
51491;SDS011;37569;50.548;8.778;2023-10-08T00:49:57;6.1;;;4.6;;
51491;SDS011;37569;50.548;8.778;2023-10-08T00:54:58;6.8;;;4.5;;
51491;SDS011;37569;50.548;8.778;2023-10-08T00:59:59;7.9;;;4.3;;
51491;SDS011;37569;50.548;8.778;2023-10-08T01:04:59;6.5;;;4.2;;
51491;SDS011;37569;50.548;8.778;2023-10-08T01:10:00;7.1;;;4.5;;
51491;SDS011;37569;50.548;8.778;2023-10-08T01:15:01;6.4;;;4.2;;
51491;SDS011;37569;50.548;8.778;2023-10-08T01:20:01;8.6;;;4.2;;
51491;SDS011;37569;50.548;8.778;2023-10-08T01:25:02;7.7;;;4.8;;
51491;SDS011;37569;50.548;8.778;2023-10-08T01:30:03;5.8;;;4.4;;
51491;SDS011;37569;50.548;8.778;2023-10-08T01:35:04;7.9;;;4.3;;
51491;SDS011;37569;50.548;8.778;2023-10-08T01:40:05;9.6;;;4.6;;
51491;SDS011;37569;50.548;8.778;2023-10-08T01:45:05;10.6;;;5;;
51491;SDS011;37569;50.548;8.778;2023-10-08T01:50:06;7.1;;;4.4;;
51491;SDS011;37569;50.548;8.778;2023-10-08T01:55:06;8.5;;;4.6;;
51491;SDS011;37569;50.548;8.778;2023-10-08T02:00:07;7.5;;;4.6;;
51491;SDS011;37569;50.548;8.778;2023-10-08T02:05:08;7.3;;;4.7;;
51491;SDS011;37569;50.548;8.778;2023-10-08T02:10:08;8.5;;;4.8;;
51491;SDS011;37569;50.548;8.778;2023-10-08T02:15:09;8.2;;;4.8;;
51491;SDS011;37569;50.548;8.778;2023-10-08T02:20:10;9.9;;;4.3;;
51491;SDS011;37569;50.548;8.778;2023-10-08T02:25:11;8.5;;;4.9;;
51491;SDS011;37569;50.548;8.778;2023-10-08T02:30:11;7.9;;;4.6;;
51491;SDS011;37569;50.548;8.778;2023-10-08T02:35:12;7.1;;;4.5;;
51491;SDS011;37569;50.548;8.778;2023-10-08T02:40:12;7.2;;;4.7;;
51491;SDS011;37569;50.548;8.778;2023-10-08T02:45:13;7.9;;;4.6;;
51491;SDS011;37569;50.548;8.778;2023-10-08T02:50:14;7.5;;;4.1;;
51491;SDS011;37569;50.548;8.778;2023-10-08T02:55:15;8;;;4.9;;
51491;SDS011;37569;50.548;8.778;2023-10-08T03:00:15;7.9;;;4.8;;
51491;SDS011;37569;50.548;8.778;2023-10-08T03:05:16;7.9;;;4.5;;
51491;SDS011;37569;50.548;8.778;2023-10-08T03:10:16;7.1;;;4.7;;
51491;SDS011;37569;50.548;8.778;2023-10-08T03:15:17;6.3;;;4.7;;
51491;SDS011;37569;50.548;8.778;2023-10-08T03:20:18;7.1;;;4.7;;
51491;SDS011;37569;50.548;8.778;2023-10-08T03:25:18;8.2;;;5.3;;
51491;SDS011;37569;50.548;8.778;2023-10-08T03:30:19;8.3;;;5.5;;
51491;SDS011;37569;50.548;8.778;2023-10-08T03:35:20;9.2;;;4.9;;
51491;SDS011;37569;50.548;8.778;2023-10-08T03:40:20;7.9;;;4.6;;
51491;SDS011;37569;50.548;8.778;2023-10-08T03:45:21;7.6;;;4.7;;
51491;SDS011;37569;50.548;8.778;2023-10-08T03:50:22;8.7;;;4.9;;
51491;SDS011;37569;50.548;8.778;2023-10-08T03:55:22;7;;;4.9;;
51491;SDS011;37569;50.548;8.778;2023-10-08T04:00:23;10;;;5.3;;
51491;SDS011;37569;50.548;8.778;2023-10-08T04:05:24;7.6;;;5.2;;
51491;SDS011;37569;50.548;8.778;2023-10-08T04:10:24;8.5;;;5.1;;
51491;SDS011;37569;50.548;8.778;2023-10-08T04:15:25;8.9;;;5.2;;
51491;SDS011;37569;50.548;8.778;2023-10-08T04:20:26;9.2;;;4.9;;
51491;SDS011;37569;50.548;8.778;2023-10-08T04:25:26;8.5;;;5.1;;
51491;SDS011;37569;50.548;8.778;2023-10-08T04:30:27;9.1;;;5;;
51491;SDS011;37569;50.548;8.778;2023-10-08T04:35:27;8.9;;;4.8;;
51491;SDS011;37569;50.548;8.778;2023-10-08T04:40:28;11.7;;;5.3;;
51491;SDS011;37569;50.548;8.778;2023-10-08T04:45:29;9.8;;;4.9;;
51491;SDS011;37569;50.548;8.778;2023-10-08T04:50:29;9.1;;;5;;
51491;SDS011;37569;50.548;8.778;2023-10-08T04:55:30;8.3;;;5;;
51491;SDS011;37569;50.548;8.778;2023-10-08T05:00:31;6.6;;;4.7;;
51491;SDS011;37569;50.548;8.778;2023-10-08T05:05:31;7.3;;;5;;
51491;SDS011;37569;50.548;8.778;2023-10-08T05:10:32;9.6;;;4.5;;
51491;SDS011;37569;50.548;8.778;2023-10-08T05:15:33;10.1;;;4.8;;
51491;SDS011;37569;50.548;8.778;2023-10-08T05:20:33;9;;;4.7;;
51491;SDS011;37569;50.548;8.778;2023-10-08T05:25:34;9.1;;;5;;
51491;SDS011;37569;50.548;8.778;2023-10-08T05:30:35;7.8;;;4.9;;
51491;SDS011;37569;50.548;8.778;2023-10-08T05:35:36;8.7;;;5;;
51491;SDS011;37569;50.548;8.778;2023-10-08T05:40:36;10.6;;;5.3;;
51491;SDS011;37569;50.548;8.778;2023-10-08T05:45:36;8;;;5;;
51491;SDS011;37569;50.548;8.778;2023-10-08T05:50:37;9.1;;;5;;
51491;SDS011;37569;50.548;8.778;2023-10-08T05:55:38;7.9;;;4.6;;
51491;SDS011;37569;50.548;8.778;2023-10-08T06:00:39;9.9;;;5.3;;
51491;SDS011;37569;50.548;8.778;2023-10-08T06:05:39;9.4;;;5;;
51491;SDS011;37569;50.548;8.778;2023-10-08T06:10:40;11.6;;;5.3;;
51491;SDS011;37569;50.548;8.778;2023-10-08T06:15:41;9.7;;;5.2;;
51491;SDS011;37569;50.548;8.778;2023-10-08T06:20:41;8.6;;;4.8;;
51491;SDS011;37569;50.548;8.778;2023-10-08T06:25:42;7.5;;;4.7;;
51491;SDS011;37569;50.548;8.778;2023-10-08T06:30:42;9.1;;;5;;
51491;SDS011;37569;50.548;8.778;2023-10-08T06:35:43;9.9;;;5.1;;
51491;SDS011;37569;50.548;8.778;2023-10-08T06:40:43;7.8;;;5.2;;
51491;SDS011;37569;50.548;8.778;2023-10-08T06:45:45;10.6;;;5.2;;
51491;SDS011;37569;50.548;8.778;2023-10-08T06:50:45;9.5;;;5.5;;
51491;SDS011;37569;50.548;8.778;2023-10-08T06:55:46;9.1;;;5.2;;
51491;SDS011;37569;50.548;8.778;2023-10-08T07:00:46;10.9;;;5.4;;
51491;SDS011;37569;50.548;8.778;2023-10-08T07:05:47;10.6;;;5.6;;
51491;SDS011;37569;50.548;8.778;2023-10-08T07:10:48;11.3;;;6.5;;
51491;SDS011;37569;50.548;8.778;2023-10-08T07:15:48;9.3;;;5.5;;
51491;SDS011;37569;50.548;8.778;2023-10-08T07:20:49;10.1;;;6.1;;
51491;SDS011;37569;50.548;8.778;2023-10-08T07:25:53;11.1;;;8;;
51491;SDS011;37569;50.548;8.778;2023-10-08T07:30:51;10.9;;;5.9;;
51491;SDS011;37569;50.548;8.778;2023-10-08T07:35:51;9.1;;;5.8;;
51491;SDS011;37569;50.548;8.778;2023-10-08T07:40:52;10.6;;;6.6;;
51491;SDS011;37569;50.548;8.778;2023-10-08T07:45:53;9.9;;;6.7;;
51491;SDS011;37569;50.548;8.778;2023-10-08T07:50:53;10.2;;;5.7;;
51491;SDS011;37569;50.548;8.778;2023-10-08T07:55:54;10.4;;;5.2;;
51491;SDS011;37569;50.548;8.778;2023-10-08T08:00:55;10.1;;;5.5;;
51491;SDS011;37569;50.548;8.778;2023-10-08T08:05:56;8.9;;;5.3;;
51491;SDS011;37569;50.548;8.778;2023-10-08T08:10:56;10.8;;;5.1;;
51491;SDS011;37569;50.548;8.778;2023-10-08T08:15:57;10.8;;;5.4;;
51491;SDS011;37569;50.548;8.778;2023-10-08T08:20:59;9.1;;;5;;
51491;SDS011;37569;50.548;8.778;2023-10-08T08:25:59;10.7;;;5.7;;
51491;SDS011;37569;50.548;8.778;2023-10-08T08:31:03;9.7;;;6;;
51491;SDS011;37569;50.548;8.778;2023-10-08T08:36:00;10.3;;;5.7;;
51491;SDS011;37569;50.548;8.778;2023-10-08T08:41:01;9.8;;;5.3;;
51491;SDS011;37569;50.548;8.778;2023-10-08T08:46:02;9.7;;;5.7;;
51491;SDS011;37569;50.548;8.778;2023-10-08T08:51:02;11.2;;;5.8;;
51491;SDS011;37569;50.548;8.778;2023-10-08T08:56:04;9.3;;;5.8;;
51491;SDS011;37569;50.548;8.778;2023-10-08T09:01:05;9.5;;;5.8;;
51491;SDS011;37569;50.548;8.778;2023-10-08T09:06:05;10.6;;;6;;
51491;SDS011;37569;50.548;8.778;2023-10-08T09:11:06;10.4;;;5.6;;
51491;SDS011;37569;50.548;8.778;2023-10-08T09:16:07;11.4;;;6;;
51491;SDS011;37569;50.548;8.778;2023-10-08T09:21:11;11.4;;;6.4;;
51491;SDS011;37569;50.548;8.778;2023-10-08T09:26:08;12.1;;;6.4;;
51491;SDS011;37569;50.548;8.778;2023-10-08T09:31:10;14.1;;;6.9;;
51491;SDS011;37569;50.548;8.778;2023-10-08T09:36:10;11.4;;;7.3;;
51491;SDS011;37569;50.548;8.778;2023-10-08T09:41:11;12.7;;;7.3;;
51491;SDS011;37569;50.548;8.778;2023-10-08T09:46:13;11.6;;;6.6;;
51491;SDS011;37569;50.548;8.778;2023-10-08T09:51:13;15.3;;;7.1;;
51491;SDS011;37569;50.548;8.778;2023-10-08T09:56:14;13.5;;;7.3;;
51491;SDS011;37569;50.548;8.778;2023-10-08T10:01:14;13;;;6.5;;
51491;SDS011;37569;50.548;8.778;2023-10-08T10:06:16;13.1;;;7.3;;
51491;SDS011;37569;50.548;8.778;2023-10-08T10:11:16;13.2;;;6.9;;
51491;SDS011;37569;50.548;8.778;2023-10-08T10:16:17;12.2;;;6.5;;
51491;SDS011;37569;50.548;8.778;2023-10-08T10:21:24;11.2;;;6.7;;
51491;SDS011;37569;50.548;8.778;2023-10-08T10:26:23;11.5;;;6.7;;
51491;SDS011;37569;50.548;8.778;2023-10-08T10:31:20;12.6;;;6.4;;
51491;SDS011;37569;50.548;8.778;2023-10-08T10:36:21;11.1;;;6.1;;
51491;SDS011;37569;50.548;8.778;2023-10-08T10:41:21;13.6;;;7;;
51491;SDS011;37569;50.548;8.778;2023-10-08T10:46:22;14.2;;;7.9;;
51491;SDS011;37569;50.548;8.778;2023-10-08T10:51:23;5.4;;;3;;
51491;SDS011;37569;50.548;8.778;2023-10-08T10:56:24;6.1;;;2.4;;
51491;SDS011;37569;50.548;8.778;2023-10-08T11:01:26;2.9;;;1.9;;
51491;SDS011;37569;50.548;8.778;2023-10-08T11:06:25;3;;;1.6;;
51491;SDS011;37569;50.548;8.778;2023-10-08T11:11:26;2.8;;;1.6;;
51491;SDS011;37569;50.548;8.778;2023-10-08T11:16:27;3.3;;;1.6;;
51491;SDS011;37569;50.548;8.778;2023-10-08T11:21:28;3.7;;;1.7;;
51491;SDS011;37569;50.548;8.778;2023-10-08T11:26:35;4;;;1.7;;
51491;SDS011;37569;50.548;8.778;2023-10-08T11:31:29;3.8;;;1.6;;
51491;SDS011;37569;50.548;8.778;2023-10-08T11:36:30;2.2;;;1.9;;
51491;SDS011;37569;50.548;8.778;2023-10-08T11:41:30;4.5;;;1.8;;
51491;SDS011;37569;50.548;8.778;2023-10-08T11:46:31;4.9;;;1.8;;
51491;SDS011;37569;50.548;8.778;2023-10-08T11:51:32;2.3;;;1.7;;
51491;SDS011;37569;50.548;8.778;2023-10-08T11:56:33;4.4;;;1.8;;
51491;SDS011;37569;50.548;8.778;2023-10-08T12:01:34;3.9;;;1.6;;
51491;SDS011;37569;50.548;8.778;2023-10-08T12:06:34;3.9;;;1.3;;
51491;SDS011;37569;50.548;8.778;2023-10-08T12:11:35;2.8;;;1.3;;
51491;SDS011;37569;50.548;8.778;2023-10-08T12:16:36;2.9;;;1.5;;
51491;SDS011;37569;50.548;8.778;2023-10-08T12:21:36;4.5;;;1.6;;
51491;SDS011;37569;50.548;8.778;2023-10-08T12:26:37;3.2;;;1.2;;
51491;SDS011;37569;50.548;8.778;2023-10-08T12:31:38;2.9;;;1.4;;
51491;SDS011;37569;50.548;8.778;2023-10-08T12:36:38;4.8;;;1.5;;
51491;SDS011;37569;50.548;8.778;2023-10-08T12:41:39;4.8;;;1.4;;
51491;SDS011;37569;50.548;8.778;2023-10-08T12:46:40;3.2;;;1.5;;
51491;SDS011;37569;50.548;8.778;2023-10-08T12:51:41;5.6;;;1.5;;
51491;SDS011;37569;50.548;8.778;2023-10-08T12:56:41;2.2;;;1.2;;
51491;SDS011;37569;50.548;8.778;2023-10-08T13:01:42;3.1;;;1.5;;
51491;SDS011;37569;50.548;8.778;2023-10-08T13:06:43;3.9;;;1.5;;
51491;SDS011;37569;50.548;8.778;2023-10-08T13:11:43;4.6;;;1.6;;
51491;SDS011;37569;50.548;8.778;2023-10-08T13:16:44;3.1;;;1.4;;
51491;SDS011;37569;50.548;8.778;2023-10-08T13:21:45;3.3;;;1.5;;
51491;SDS011;37569;50.548;8.778;2023-10-08T13:26:46;3.2;;;1.3;;
51491;SDS011;37569;50.548;8.778;2023-10-08T13:31:46;3.1;;;1.5;;
51491;SDS011;37569;50.548;8.778;2023-10-08T13:36:47;3.8;;;1.6;;
51491;SDS011;37569;50.548;8.778;2023-10-08T13:41:48;5.6;;;2;;
51491;SDS011;37569;50.548;8.778;2023-10-08T13:46:48;8.3;;;1.7;;
51491;SDS011;37569;50.548;8.778;2023-10-08T13:51:49;4.8;;;2.1;;
51491;SDS011;37569;50.548;8.778;2023-10-08T13:56:50;5.9;;;2.7;;
51491;SDS011;37569;50.548;8.778;2023-10-08T14:01:51;5;;;1.8;;
51491;SDS011;37569;50.548;8.778;2023-10-08T14:06:51;5;;;1.9;;
51491;SDS011;37569;50.548;8.778;2023-10-08T14:11:52;4.1;;;1.8;;
51491;SDS011;37569;50.548;8.778;2023-10-08T14:16:53;6.5;;;2.2;;
51491;SDS011;37569;50.548;8.778;2023-10-08T14:21:53;5.5;;;1.9;;
51491;SDS011;37569;50.548;8.778;2023-10-08T14:26:54;6.4;;;2.1;;
51491;SDS011;37569;50.548;8.778;2023-10-08T14:31:55;9.6;;;2;;
51491;SDS011;37569;50.548;8.778;2023-10-08T14:36:56;5.4;;;2.1;;
51491;SDS011;37569;50.548;8.778;2023-10-08T14:41:56;5.2;;;2.3;;
51491;SDS011;37569;50.548;8.778;2023-10-08T14:46:57;7.9;;;2.3;;
51491;SDS011;37569;50.548;8.778;2023-10-08T14:51:58;3.4;;;2.4;;
51491;SDS011;37569;50.548;8.778;2023-10-08T14:56:59;5.1;;;2.5;;
51491;SDS011;37569;50.548;8.778;2023-10-08T15:01:59;6;;;2.3;;
51491;SDS011;37569;50.548;8.778;2023-10-08T15:07:00;5.8;;;2.2;;
51491;SDS011;37569;50.548;8.778;2023-10-08T15:12:01;6.1;;;2.4;;
51491;SDS011;37569;50.548;8.778;2023-10-08T15:17:01;6.9;;;2.5;;
51491;SDS011;37569;50.548;8.778;2023-10-08T15:22:02;4.5;;;2.5;;
51491;SDS011;37569;50.548;8.778;2023-10-08T15:27:03;6.8;;;2.2;;
51491;SDS011;37569;50.548;8.778;2023-10-08T15:32:04;5.4;;;2.3;;
51491;SDS011;37569;50.548;8.778;2023-10-08T15:37:04;8;;;2.4;;
51491;SDS011;37569;50.548;8.778;2023-10-08T15:42:05;4.3;;;2.3;;
51491;SDS011;37569;50.548;8.778;2023-10-08T15:47:06;3.9;;;2.3;;
51491;SDS011;37569;50.548;8.778;2023-10-08T15:52:06;3.7;;;2.1;;
51491;SDS011;37569;50.548;8.778;2023-10-08T15:57:07;5.5;;;2.1;;
51491;SDS011;37569;50.548;8.778;2023-10-08T16:02:08;5.3;;;2.5;;
51491;SDS011;37569;50.548;8.778;2023-10-08T16:07:08;4.9;;;2.5;;
51491;SDS011;37569;50.548;8.778;2023-10-08T16:12:09;8.7;;;4.6;;
51491;SDS011;37569;50.548;8.778;2023-10-08T16:17:10;5.2;;;2.6;;
51491;SDS011;37569;50.548;8.778;2023-10-08T16:22:10;5.9;;;2.6;;
51491;SDS011;37569;50.548;8.778;2023-10-08T16:27:11;6.2;;;2.7;;
51491;SDS011;37569;50.548;8.778;2023-10-08T16:32:12;5.7;;;2.6;;
51491;SDS011;37569;50.548;8.778;2023-10-08T16:37:12;11.4;;;5.1;;
51491;SDS011;37569;50.548;8.778;2023-10-08T16:42:13;5.1;;;2.2;;
51491;SDS011;37569;50.548;8.778;2023-10-08T16:47:14;6.1;;;3.6;;
51491;SDS011;37569;50.548;8.778;2023-10-08T16:52:14;5.1;;;2.8;;
51491;SDS011;37569;50.548;8.778;2023-10-08T16:57:15;5.6;;;3.3;;
51491;SDS011;37569;50.548;8.778;2023-10-08T17:02:16;4.9;;;2.6;;
51491;SDS011;37569;50.548;8.778;2023-10-08T17:07:16;6.3;;;4.7;;
51491;SDS011;37569;50.548;8.778;2023-10-08T17:12:17;3.9;;;2.6;;
51491;SDS011;37569;50.548;8.778;2023-10-08T17:17:17;3.9;;;3.2;;
51491;SDS011;37569;50.548;8.778;2023-10-08T17:22:18;8.1;;;5.5;;
51491;SDS011;37569;50.548;8.778;2023-10-08T17:27:19;7.8;;;3.9;;
51491;SDS011;37569;50.548;8.778;2023-10-08T17:32:19;10.8;;;6.8;;
51491;SDS011;37569;50.548;8.778;2023-10-08T17:37:20;9.4;;;6.5;;
51491;SDS011;37569;50.548;8.778;2023-10-08T17:42:20;6.8;;;3.9;;
51491;SDS011;37569;50.548;8.778;2023-10-08T17:47:21;7.7;;;4.5;;
51491;SDS011;37569;50.548;8.778;2023-10-08T17:52:22;7.4;;;4.5;;
51491;SDS011;37569;50.548;8.778;2023-10-08T17:57:22;7.5;;;3.4;;
51491;SDS011;37569;50.548;8.778;2023-10-08T18:02:23;5.3;;;3.6;;
51491;SDS011;37569;50.548;8.778;2023-10-08T18:07:23;6.5;;;4.1;;
51491;SDS011;37569;50.548;8.778;2023-10-08T18:12:24;4.7;;;3.1;;
51491;SDS011;37569;50.548;8.778;2023-10-08T18:17:25;4.4;;;2.4;;
51491;SDS011;37569;50.548;8.778;2023-10-08T18:22:26;6.7;;;3;;
51491;SDS011;37569;50.548;8.778;2023-10-08T18:27:26;6.6;;;3.2;;
51491;SDS011;37569;50.548;8.778;2023-10-08T18:32:27;5.3;;;2.8;;
51491;SDS011;37569;50.548;8.778;2023-10-08T18:37:27;7.6;;;2.9;;
51491;SDS011;37569;50.548;8.778;2023-10-08T18:42:28;4.7;;;2.1;;
51491;SDS011;37569;50.548;8.778;2023-10-08T18:47:28;3.2;;;2.2;;
51491;SDS011;37569;50.548;8.778;2023-10-08T18:52:29;5.9;;;2.6;;
51491;SDS011;37569;50.548;8.778;2023-10-08T18:57:30;3.7;;;2;;
51491;SDS011;37569;50.548;8.778;2023-10-08T19:02:30;4.2;;;2;;
51491;SDS011;37569;50.548;8.778;2023-10-08T19:07:31;6;;;1.9;;
51491;SDS011;37569;50.548;8.778;2023-10-08T19:12:31;3.2;;;2;;
51491;SDS011;37569;50.548;8.778;2023-10-08T19:17:32;5.4;;;2;;
51491;SDS011;37569;50.548;8.778;2023-10-08T19:22:33;6.7;;;2.3;;
51491;SDS011;37569;50.548;8.778;2023-10-08T19:27:33;5.4;;;2.2;;
51491;SDS011;37569;50.548;8.778;2023-10-08T19:32:34;5.3;;;2.4;;
51491;SDS011;37569;50.548;8.778;2023-10-08T19:37:34;3.8;;;2.3;;
51491;SDS011;37569;50.548;8.778;2023-10-08T19:42:35;3.4;;;2.4;;
51491;SDS011;37569;50.548;8.778;2023-10-08T19:47:36;5.6;;;2.6;;
51491;SDS011;37569;50.548;8.778;2023-10-08T19:52:36;5.6;;;2.6;;
51491;SDS011;37569;50.548;8.778;2023-10-08T19:57:38;4.4;;;2.3;;
51491;SDS011;37569;50.548;8.778;2023-10-08T20:02:37;4.6;;;2.3;;
51491;SDS011;37569;50.548;8.778;2023-10-08T20:07:38;6.4;;;2.4;;
51491;SDS011;37569;50.548;8.778;2023-10-08T20:12:38;5.1;;;2.4;;
51491;SDS011;37569;50.548;8.778;2023-10-08T20:17:39;4.6;;;2.4;;
51491;SDS011;37569;50.548;8.778;2023-10-08T20:22:40;4.1;;;2.3;;
51491;SDS011;37569;50.548;8.778;2023-10-08T20:27:41;4.4;;;2.5;;
51491;SDS011;37569;50.548;8.778;2023-10-08T20:32:41;5.3;;;2.5;;
51491;SDS011;37569;50.548;8.778;2023-10-08T20:37:42;5.1;;;2.6;;
51491;SDS011;37569;50.548;8.778;2023-10-08T20:42:42;4.3;;;2.8;;
51491;SDS011;37569;50.548;8.778;2023-10-08T20:47:43;7.6;;;3.3;;
51491;SDS011;37569;50.548;8.778;2023-10-08T20:52:43;4.8;;;3.6;;
51491;SDS011;37569;50.548;8.778;2023-10-08T20:57:44;5.2;;;3.7;;
51491;SDS011;37569;50.548;8.778;2023-10-08T21:02:44;9;;;3.9;;
51491;SDS011;37569;50.548;8.778;2023-10-08T21:07:45;7.4;;;3.9;;
51491;SDS011;37569;50.548;8.778;2023-10-08T21:12:46;5.1;;;3.5;;
51491;SDS011;37569;50.548;8.778;2023-10-08T21:17:46;5.4;;;3.6;;
51491;SDS011;37569;50.548;8.778;2023-10-08T21:22:47;4.9;;;3.6;;
51491;SDS011;37569;50.548;8.778;2023-10-08T21:27:49;5.7;;;3.6;;
51491;SDS011;37569;50.548;8.778;2023-10-08T21:32:48;6.1;;;3.6;;
51491;SDS011;37569;50.548;8.778;2023-10-08T21:37:49;6.7;;;3.5;;
51491;SDS011;37569;50.548;8.778;2023-10-08T21:42:50;5.5;;;3.4;;
51491;SDS011;37569;50.548;8.778;2023-10-08T21:47:50;6.5;;;3.5;;
51491;SDS011;37569;50.548;8.778;2023-10-08T21:52:51;5.2;;;3.5;;
51491;SDS011;37569;50.548;8.778;2023-10-08T21:57:51;6.3;;;3.4;;
51491;SDS011;37569;50.548;8.778;2023-10-08T22:02:52;5;;;3.5;;
51491;SDS011;37569;50.548;8.778;2023-10-08T22:07:52;5.5;;;3.4;;
51491;SDS011;37569;50.548;8.778;2023-10-08T22:12:52;5.5;;;3.8;;
51491;SDS011;37569;50.548;8.778;2023-10-08T22:17:53;5.6;;;3.5;;
51491;SDS011;37569;50.548;8.778;2023-10-08T22:22:54;5.2;;;3.5;;
51491;SDS011;37569;50.548;8.778;2023-10-08T22:27:54;6.3;;;4;;
51491;SDS011;37569;50.548;8.778;2023-10-08T22:32:55;7.5;;;4;;
51491;SDS011;37569;50.548;8.778;2023-10-08T22:37:55;5.1;;;3.3;;
51491;SDS011;37569;50.548;8.778;2023-10-08T22:42:56;7.8;;;3.9;;
51491;SDS011;37569;50.548;8.778;2023-10-08T22:47:56;4.8;;;3.5;;
51491;SDS011;37569;50.548;8.778;2023-10-08T22:52:57;5.6;;;3.6;;
51491;SDS011;37569;50.548;8.778;2023-10-08T22:57:58;5.6;;;3.5;;
51491;SDS011;37569;50.548;8.778;2023-10-08T23:02:58;5.1;;;3.7;;
51491;SDS011;37569;50.548;8.778;2023-10-08T23:07:59;5.8;;;4.2;;
51491;SDS011;37569;50.548;8.778;2023-10-08T23:12:59;7;;;4.8;;
51491;SDS011;37569;50.548;8.778;2023-10-08T23:18:00;6.1;;;4.7;;
51491;SDS011;37569;50.548;8.778;2023-10-08T23:23:00;6.9;;;4;;
51491;SDS011;37569;50.548;8.778;2023-10-08T23:28:01;5.4;;;4.2;;
51491;SDS011;37569;50.548;8.778;2023-10-08T23:33:02;6.1;;;4.2;;
51491;SDS011;37569;50.548;8.778;2023-10-08T23:38:02;7.4;;;4.8;;
51491;SDS011;37569;50.548;8.778;2023-10-08T23:43:03;11.9;;;5.5;;
51491;SDS011;37569;50.548;8.778;2023-10-08T23:48:04;8.4;;;5.5;;
51491;SDS011;37569;50.548;8.778;2023-10-08T23:53:04;9;;;6;;
51491;SDS011;37569;50.548;8.778;2023-10-08T23:58:04;8;;;5.3;;
